Time;durP1;ratioP1;P1;durP2;ratioP2;P2;SDS_P1;SDS_P2;PMS_P1;PMS_P2;Temp;Humidity;BMP_temperature;BMP_pressure;BME280_temperature;BME280_humidity;BME280_pressure;Samples;Min_cycle;Max_cycle;Signal;HPM_P1;HPM_P2
2021/07/12 00:00:56;;;;;;;8.32;7.32;;;;;;;;;;4932330;29;20039;-80
2021/07/12 00:03:22;;;;;;;9.77;6.97;;;;;;;;;;4942096;29;20576;-77
2021/07/12 00:05:48;;;;;;;10.93;6.97;;;;;;;;;;4940440;29;20087;-77
2021/07/12 00:08:14;;;;;;;11.43;7.22;;;;;;;;;;4944693;29;20490;-76
2021/07/12 00:10:41;;;;;;;10.70;7.28;;;;;;;;;;4939858;29;20036;-82
2021/07/12 00:13:07;;;;;;;11.40;6.88;;;;;;;;;;4951424;28;20092;-80
2021/07/12 00:15:33;;;;;;;15.27;7.22;;;;;;;;;;4946505;29;20122;-78
2021/07/12 00:17:59;;;;;;;11.25;6.97;;;;;;;;;;4940163;29;20037;-77
2021/07/12 00:20:25;;;;;;;13.90;7.43;;;;;;;;;;4935179;29;20028;-81
2021/07/12 00:22:52;;;;;;;12.98;7.65;;;;;;;;;;4947276;29;20038;-78
2021/07/12 00:25:19;;;;;;;13.45;7.50;;;;;;;;;;4945756;29;20490;-74
2021/07/12 00:27:45;;;;;;;10.50;7.65;;;;;;;;;;4935161;29;20083;-67
2021/07/12 00:30:13;;;;;;;11.40;7.63;;;;;;;;;;4939096;29;20028;-82
2021/07/12 00:32:39;;;;;;;10.55;6.97;;;;;;;;;;4934738;29;20510;-82
2021/07/12 00:35:06;;;;;;;10.65;7.43;;;;;;;;;;4946094;29;20034;-77
2021/07/12 00:37:33;;;;;;;9.20;7.38;;;;;;;;;;4935463;29;20134;-82
2021/07/12 00:39:59;;;;;;;10.90;7.22;;;;;;;;;;4947973;29;20027;-76
2021/07/12 00:42:25;;;;;;;13.68;7.68;;;;;;;;;;4949827;29;20090;-82
2021/07/12 00:44:51;;;;;;;9.15;7.20;;;;;;;;;;4946190;29;20039;-81
2021/07/12 00:47:17;;;;;;;9.35;7.60;;;;;;;;;;4941705;29;20507;-78
2021/07/12 00:49:43;;;;;;;10.05;7.43;;;;;;;;;;4936688;29;20034;-83
2021/07/12 00:52:09;;;;;;;24.83;8.90;;;;;;;;;;4949673;29;20031;-77
2021/07/12 00:54:36;;;;;;;11.45;8.20;;;;;;;;;;4946696;29;20107;-80
2021/07/12 00:57:05;;;;;;;12.73;7.95;;;;;;;;;;4923008;29;20035;-80
2021/07/12 00:59:31;;;;;;;15.25;7.70;;;;;;;;;;4939855;29;20027;-81
2021/07/12 01:01:57;;;;;;;10.07;7.80;;;;;;;;;;4946293;29;20050;-79
2021/07/12 01:04:23;;;;;;;9.68;7.40;;;;;;;;;;4939401;29;20078;-81
2021/07/12 01:06:49;;;;;;;14.95;7.88;;;;;;;;;;4940166;29;20039;-83
2021/07/12 01:09:15;;;;;;;10.20;7.40;;;;;;;;;;4937228;29;20075;-79
2021/07/12 01:11:59;;;;;;;13.30;8.23;;;;;;;;;;4941895;29;20046;-81
2021/07/12 01:14:34;;;;;;;12.27;7.25;;;;;;;;;;4947099;28;20055;-81
2021/07/12 01:17:04;;;;;;;13.52;7.90;;;;;;;;;;4929176;29;20082;-70
2021/07/12 01:19:33;;;;;;;11.25;7.18;;;;;;;;;;4941895;29;20040;-72
2021/07/12 01:22:11;;;;;;;11.15;7.68;;;;;;;;;;4940605;29;20031;-82
2021/07/12 01:24:50;;;;;;;14.02;7.22;;;;;;;;;;4948058;29;20093;-71
2021/07/12 01:27:16;;;;;;;10.63;7.13;;;;;;;;;;4939819;29;20541;-82
2021/07/12 01:30:00;;;;;;;11.18;7.10;;;;;;;;;;4949108;29;20115;-74
2021/07/12 01:32:32;;;;;;;12.68;7.78;;;;;;;;;;4935860;29;20038;-78
2021/07/12 01:35:17;;;;;;;11.75;8.00;;;;;;;;;;4938125;29;20496;-79
2021/07/12 01:37:48;;;;;;;10.30;7.25;;;;;;;;;;4933774;29;20110;-76
2021/07/12 01:40:15;;;;;;;10.23;7.40;;;;;;;;;;4949438;29;20465;-83
2021/07/12 01:42:47;;;;;;;10.40;7.47;;;;;;;;;;4929468;29;20093;-85
2021/07/12 01:45:14;;;;;;;11.38;7.07;;;;;;;;;;4949195;29;20047;-81
2021/07/12 01:47:46;;;;;;;10.40;7.90;;;;;;;;;;4940456;29;20028;-78
2021/07/12 01:50:45;;;;;;;10.98;8.43;;;;;;;;;;4950319;29;20520;-80
2021/07/12 01:53:19;;;;;;;10.95;7.82;;;;;;;;;;4892073;29;20040;-82
2021/07/12 01:55:48;;;;;;;19.65;8.60;;;;;;;;;;4882565;29;20135;-81
2021/07/12 01:58:26;;;;;;;10.35;8.10;;;;;;;;;;4884073;29;20072;-80
2021/07/12 02:00:52;;;;;;;12.75;8.88;;;;;;;;;;4885519;29;20024;-79
2021/07/12 02:03:20;;;;;;;14.68;8.98;;;;;;;;;;4888481;29;20040;-82
2021/07/12 02:05:47;;;;;;;18.42;8.75;;;;;;;;;;4885134;29;20075;-82
2021/07/12 02:08:15;;;;;;;13.13;9.02;;;;;;;;;;4882111;29;20045;-79
2021/07/12 02:10:41;;;;;;;14.60;9.10;;;;;;;;;;4886358;29;20033;-82
2021/07/12 02:13:07;;;;;;;10.73;8.75;;;;;;;;;;4881760;29;20108;-83
2021/07/12 02:15:34;;;;;;;14.45;9.77;;;;;;;;;;4881381;29;20052;-77
2021/07/12 02:18:01;;;;;;;14.55;9.57;;;;;;;;;;4877902;29;20021;-74
2021/07/12 02:20:27;;;;;;;14.10;9.43;;;;;;;;;;4890148;29;20037;-80
2021/07/12 02:22:54;;;;;;;14.75;9.50;;;;;;;;;;4888235;29;20048;-83
2021/07/12 02:25:21;;;;;;;14.70;9.40;;;;;;;;;;4888500;29;20033;-76
2021/07/12 02:27:48;;;;;;;12.18;9.60;;;;;;;;;;4896630;29;20101;-80
2021/07/12 02:30:14;;;;;;;12.20;9.52;;;;;;;;;;4943366;29;20032;-82
2021/07/12 02:32:41;;;;;;;14.20;9.27;;;;;;;;;;4941911;29;20055;-82
2021/07/12 02:35:08;;;;;;;14.98;8.98;;;;;;;;;;4949676;29;20058;-81
2021/07/12 02:37:38;;;;;;;14.40;9.07;;;;;;;;;;4938117;29;20036;-80
2021/07/12 02:40:06;;;;;;;14.20;9.48;;;;;;;;;;4943169;29;20024;-82
2021/07/12 02:42:33;;;;;;;14.43;9.70;;;;;;;;;;4945858;29;20098;-82
2021/07/12 02:44:59;;;;;;;12.27;9.70;;;;;;;;;;4940948;29;20413;-79
2021/07/12 02:47:25;;;;;;;10.82;9.02;;;;;;;;;;4940983;29;20031;-70
2021/07/12 02:49:51;;;;;;;10.30;8.65;;;;;;;;;;4952456;29;20441;-82
2021/07/12 02:52:23;;;;;;;15.27;8.80;;;;;;;;;;4939283;29;20032;-82
2021/07/12 02:54:51;;;;;;;12.48;8.48;;;;;;;;;;4946548;29;20032;-73
2021/07/12 02:57:17;;;;;;;14.15;8.60;;;;;;;;;;4941726;29;20118;-80
2021/07/12 02:59:43;;;;;;;11.75;8.18;;;;;;;;;;4956323;29;20023;-74
2021/07/12 03:02:09;;;;;;;10.63;8.50;;;;;;;;;;4936910;29;20070;-80
2021/07/12 03:04:35;;;;;;;11.35;8.32;;;;;;;;;;4949810;29;20028;-82
2021/07/12 03:07:03;;;;;;;13.00;8.75;;;;;;;;;;4935297;29;20043;-84
2021/07/12 03:09:36;;;;;;;11.63;8.18;;;;;;;;;;4940492;29;20500;-81
2021/07/12 03:12:08;;;;;;;12.75;8.20;;;;;;;;;;4937995;29;20054;-82
2021/07/12 03:14:53;;;;;;;14.27;8.70;;;;;;;;;;4954054;28;20070;-79
2021/07/12 03:17:20;;;;;;;16.15;8.70;;;;;;;;;;4938126;29;20532;-79
2021/07/12 03:19:47;;;;;;;11.32;7.97;;;;;;;;;;4939773;29;20027;-76
2021/07/12 03:22:14;;;;;;;12.30;7.70;;;;;;;;;;4941077;29;20039;-76
2021/07/12 03:24:41;;;;;;;12.98;8.25;;;;;;;;;;4949542;29;20038;-82
2021/07/12 03:27:08;;;;;;;11.88;7.63;;;;;;;;;;4937090;29;20112;-74
2021/07/12 03:29:39;;;;;;;10.75;8.10;;;;;;;;;;4935252;29;20474;-81
2021/07/12 03:32:06;;;;;;;10.00;7.78;;;;;;;;;;4935947;29;20059;-78
2021/07/12 03:34:32;;;;;;;10.63;7.60;;;;;;;;;;4923116;29;20483;-79
2021/07/12 03:36:59;;;;;;;12.85;8.02;;;;;;;;;;4935928;29;20031;-67
2021/07/12 03:39:26;;;;;;;8.55;7.38;;;;;;;;;;4944504;29;20039;-79
2021/07/12 03:41:52;;;;;;;11.50;7.68;;;;;;;;;;4944820;29;20044;-78
2021/07/12 03:44:21;;;;;;;11.38;7.85;;;;;;;;;;4943226;29;20042;-79
2021/07/12 03:46:47;;;;;;;12.20;7.68;;;;;;;;;;4945733;29;20095;-80
2021/07/12 03:49:14;;;;;;;10.43;7.55;;;;;;;;;;4941526;29;20544;-76
2021/07/12 03:51:41;;;;;;;15.07;7.97;;;;;;;;;;4940847;29;20561;-77
2021/07/12 03:54:07;;;;;;;12.80;7.93;;;;;;;;;;4941899;29;20062;-80
2021/07/12 03:56:34;;;;;;;15.55;8.00;;;;;;;;;;4946532;29;20031;-79
2021/07/12 03:59:00;;;;;;;12.95;7.68;;;;;;;;;;4941010;29;20028;-79
2021/07/12 04:01:28;;;;;;;10.63;7.72;;;;;;;;;;4939467;29;20035;-76
2021/07/12 04:03:55;;;;;;;11.85;7.90;;;;;;;;;;4929039;29;20036;-73
2021/07/12 04:06:24;;;;;;;13.25;8.25;;;;;;;;;;4932996;29;20023;-78
2021/07/12 04:08:53;;;;;;;13.73;8.35;;;;;;;;;;4935085;29;20031;-70
2021/07/12 04:11:21;;;;;;;11.02;7.68;;;;;;;;;;4922993;29;20035;-77
2021/07/12 04:13:58;;;;;;;11.32;8.40;;;;;;;;;;4940290;29;20044;-85
2021/07/12 04:16:25;;;;;;;13.02;8.02;;;;;;;;;;4927693;29;20401;-76
2021/07/12 04:18:51;;;;;;;12.82;8.10;;;;;;;;;;4936142;29;20043;-79
2021/07/12 04:21:17;;;;;;;12.05;8.18;;;;;;;;;;4936508;29;20032;-78
2021/07/12 04:23:43;;;;;;;12.30;7.85;;;;;;;;;;4949363;29;20044;-82
2021/07/12 04:26:09;;;;;;;10.88;8.30;;;;;;;;;;4936704;29;20095;-71
2021/07/12 04:28:35;;;;;;;15.38;8.45;;;;;;;;;;4938397;29;20037;-72
2021/07/12 04:31:01;;;;;;;13.25;8.48;;;;;;;;;;4939114;29;20497;-68
2021/07/12 04:33:28;;;;;;;11.23;8.07;;;;;;;;;;4932072;29;20028;-74
2021/07/12 04:35:54;;;;;;;15.93;8.40;;;;;;;;;;4940037;29;20027;-74
2021/07/12 04:38:20;;;;;;;13.75;8.25;;;;;;;;;;4936898;29;20034;-76
2021/07/12 04:40:48;;;;;;;13.57;9.13;;;;;;;;;;4939171;29;20027;-78
2021/07/12 04:43:14;;;;;;;14.85;9.25;;;;;;;;;;4935976;29;20245;-79
2021/07/12 04:45:40;;;;;;;12.90;9.43;;;;;;;;;;4934100;29;20027;-72
2021/07/12 04:48:07;;;;;;;18.33;9.30;;;;;;;;;;4925233;29;20043;-76
2021/07/12 04:50:33;;;;;;;18.20;9.13;;;;;;;;;;4942726;29;20106;-75
2021/07/12 04:52:59;;;;;;;14.90;9.40;;;;;;;;;;4931553;29;20027;-76
2021/07/12 04:55:25;;;;;;;14.35;8.75;;;;;;;;;;4928817;29;20064;-66
2021/07/12 04:57:51;;;;;;;12.95;8.57;;;;;;;;;;4924430;29;20036;-74
2021/07/12 05:00:17;;;;;;;11.65;8.50;;;;;;;;;;4934668;29;20046;-76
2021/07/12 05:02:43;;;;;;;14.38;8.90;;;;;;;;;;4926768;29;20032;-76
2021/07/12 05:05:11;;;;;;;14.23;8.73;;;;;;;;;;4926900;29;20039;-80
2021/07/12 05:07:39;;;;;;;22.13;9.38;;;;;;;;;;4932786;29;20462;-79
2021/07/12 05:10:05;;;;;;;14.27;8.25;;;;;;;;;;4935495;29;20023;-80
2021/07/12 05:12:32;;;;;;;14.23;8.93;;;;;;;;;;4933945;29;20039;-76
2021/07/12 05:14:58;;;;;;;16.90;9.18;;;;;;;;;;4931075;29;20087;-74
2021/07/12 05:17:24;;;;;;;13.48;9.25;;;;;;;;;;4926943;29;20039;-69
2021/07/12 05:19:50;;;;;;;15.50;8.45;;;;;;;;;;4932133;29;20024;-68
2021/07/12 05:22:16;;;;;;;13.75;9.32;;;;;;;;;;4933465;29;20067;-72
2021/07/12 05:24:42;;;;;;;11.60;9.10;;;;;;;;;;4933666;29;20046;-76
2021/07/12 05:27:08;;;;;;;18.15;9.18;;;;;;;;;;4934205;29;20047;-67
2021/07/12 05:29:34;;;;;;;14.73;9.07;;;;;;;;;;4934241;29;20511;-78
2021/07/12 05:32:01;;;;;;;17.67;9.38;;;;;;;;;;4932890;29;20028;-75
2021/07/12 05:34:27;;;;;;;22.67;10.65;;;;;;;;;;4933647;29;20111;-72
2021/07/12 05:36:53;;;;;;;22.52;9.43;;;;;;;;;;4934726;29;20027;-79
2021/07/12 05:39:19;;;;;;;17.45;9.32;;;;;;;;;;4931795;29;20031;-78
2021/07/12 05:41:48;;;;;;;12.88;9.05;;;;;;;;;;4933195;29;20106;-64
2021/07/12 05:44:14;;;;;;;14.50;8.82;;;;;;;;;;4932117;29;20055;-77
2021/07/12 05:46:40;;;;;;;13.55;8.82;;;;;;;;;;4933100;29;20051;-76
2021/07/12 05:49:07;;;;;;;16.60;9.48;;;;;;;;;;4938020;29;20082;-80
2021/07/12 05:51:33;;;;;;;13.35;9.35;;;;;;;;;;4936235;29;20035;-68
2021/07/12 05:54:02;;;;;;;12.00;9.27;;;;;;;;;;4935371;29;20040;-71
2021/07/12 05:56:28;;;;;;;16.02;9.15;;;;;;;;;;4935433;29;20027;-70
2021/07/12 05:58:54;;;;;;;21.45;11.00;;;;;;;;;;4934410;29;20114;-84
2021/07/12 06:01:20;;;;;;;16.08;10.55;;;;;;;;;;4934279;29;20030;-76
2021/07/12 06:03:46;;;;;;;18.80;10.02;;;;;;;;;;4934845;29;20393;-74
2021/07/12 06:06:12;;;;;;;17.20;10.60;;;;;;;;;;4935075;29;20040;-78
2021/07/12 06:08:39;;;;;;;20.17;10.02;;;;;;;;;;4934601;29;20043;-78
2021/07/12 06:11:07;;;;;;;18.70;10.10;;;;;;;;;;4937887;29;20450;-65
2021/07/12 06:13:33;;;;;;;13.07;9.43;;;;;;;;;;4936819;29;20553;-81
2021/07/12 06:15:59;;;;;;;15.05;9.23;;;;;;;;;;4936210;29;20023;-68
2021/07/12 06:18:26;;;;;;;12.10;8.48;;;;;;;;;;4936635;29;20107;-79
2021/07/12 06:20:52;;;;;;;16.17;10.13;;;;;;;;;;4938534;29;20058;-68
2021/07/12 06:23:18;;;;;;;16.15;9.50;;;;;;;;;;4941478;29;20047;-84
2021/07/12 06:25:47;;;;;;;14.23;9.63;;;;;;;;;;4942817;29;20119;-90
2021/07/12 06:28:14;;;;;;;13.55;9.45;;;;;;;;;;4922433;29;20059;-85
2021/07/12 06:30:44;;;;;;;13.40;8.80;;;;;;;;;;4942228;29;20062;-93
2021/07/12 06:33:10;;;;;;;14.07;8.95;;;;;;;;;;4920831;29;20040;-88
2021/07/12 06:35:40;;;;;;;11.45;9.30;;;;;;;;;;4946012;29;20065;-84
2021/07/12 06:38:06;;;;;;;11.63;9.98;;;;;;;;;;4920109;29;20066;-82
2021/07/12 06:40:33;;;;;;;13.35;9.32;;;;;;;;;;4931609;29;20043;-80
2021/07/12 06:42:59;;;;;;;13.05;10.40;;;;;;;;;;4936803;29;20027;-82
2021/07/12 06:45:25;;;;;;;16.92;10.32;;;;;;;;;;4938670;29;20062;-68
2021/07/12 06:47:51;;;;;;;17.02;9.10;;;;;;;;;;4939884;29;20032;-84
2021/07/12 06:50:17;;;;;;;13.43;9.63;;;;;;;;;;4935466;29;20028;-74
2021/07/12 06:52:43;;;;;;;18.55;10.55;;;;;;;;;;4945741;29;20024;-78
2021/07/12 06:55:10;;;;;;;14.05;9.73;;;;;;;;;;4945111;29;20044;-76
2021/07/12 06:57:36;;;;;;;14.25;9.35;;;;;;;;;;4931965;29;20478;-79
2021/07/12 07:00:02;;;;;;;12.70;10.10;;;;;;;;;;4935809;29;20098;-78
2021/07/12 07:02:28;;;;;;;14.13;9.48;;;;;;;;;;4932513;29;20040;-95
2021/07/12 07:04:54;;;;;;;15.27;10.00;;;;;;;;;;4932505;29;20114;-82
2021/07/12 07:07:20;;;;;;;18.30;10.68;;;;;;;;;;4935774;29;20027;-79
2021/07/12 07:09:46;;;;;;;13.98;9.70;;;;;;;;;;4919253;29;20023;-86
2021/07/12 07:12:12;;;;;;;11.77;9.35;;;;;;;;;;4919417;29;20059;-78
2021/07/12 07:14:39;;;;;;;17.92;9.63;;;;;;;;;;4918879;29;20047;-88
2021/07/12 07:17:05;;;;;;;14.15;8.90;;;;;;;;;;4940025;29;20046;-83
2021/07/12 07:19:31;;;;;;;15.27;9.02;;;;;;;;;;4918328;29;20043;-80
2021/07/12 07:21:58;;;;;;;11.40;9.27;;;;;;;;;;4919523;29;20043;-78
2021/07/12 07:24:24;;;;;;;24.33;9.38;;;;;;;;;;4937843;29;20040;-79
2021/07/12 07:26:50;;;;;;;14.63;8.65;;;;;;;;;;4936355;29;20055;-87
2021/07/12 07:29:21;;;;;;;19.35;9.77;;;;;;;;;;4936489;29;20031;-83
2021/07/12 07:31:47;;;;;;;13.02;9.25;;;;;;;;;;4935979;29;20103;-85
2021/07/12 07:34:14;;;;;;;14.75;9.30;;;;;;;;;;4924086;29;20028;-80
2021/07/12 07:36:45;;;;;;;12.07;8.60;;;;;;;;;;4933779;29;20476;-72
2021/07/12 07:39:12;;;;;;;15.70;8.55;;;;;;;;;;4932520;29;20031;-83
2021/07/12 07:41:40;;;;;;;22.33;9.77;;;;;;;;;;4935765;29;20083;-82
2021/07/12 07:44:07;;;;;;;11.27;8.40;;;;;;;;;;4941514;29;20433;-79
2021/07/12 07:46:52;;;;;;;11.20;8.05;;;;;;;;;;4920799;29;20035;-84
2021/07/12 07:49:53;;;;;;;12.20;8.27;;;;;;;;;;4936401;29;20036;-85
2021/07/12 07:52:21;;;;;;;11.57;7.93;;;;;;;;;;4931801;29;20042;-82
2021/07/12 07:54:50;;;;;;;12.10;7.80;;;;;;;;;;4934340;29;20036;-90
2021/07/12 07:57:17;;;;;;;11.35;7.65;;;;;;;;;;4936442;29;20087;-85
2021/07/12 07:59:44;;;;;;;10.98;7.45;;;;;;;;;;4918174;29;20055;-77
2021/07/12 08:02:10;;;;;;;15.32;7.35;;;;;;;;;;4922742;29;20048;-83
2021/07/12 08:04:36;;;;;;;10.90;7.10;;;;;;;;;;4921005;29;20096;-82
2021/07/12 08:07:02;;;;;;;7.93;6.65;;;;;;;;;;4919508;29;20043;-87
2021/07/12 08:09:49;;;;;;;8.32;6.38;;;;;;;;;;4927219;29;20032;-84
2021/07/12 08:12:15;;;;;;;14.27;6.65;;;;;;;;;;4937206;29;20070;-88
2021/07/12 08:14:41;;;;;;;11.32;6.43;;;;;;;;;;4930830;23;20800;-76
2021/07/12 08:17:07;;;;;;;8.00;6.47;;;;;;;;;;4935401;29;20046;-77
2021/07/12 08:19:33;;;;;;;14.23;7.07;;;;;;;;;;4952922;28;20105;-72
2021/07/12 08:22:02;;;;;;;10.60;7.07;;;;;;;;;;4952280;28;20031;-73
2021/07/12 08:24:28;;;;;;;16.70;6.95;;;;;;;;;;4940845;29;20043;-69
2021/07/12 08:26:54;;;;;;;11.27;7.25;;;;;;;;;;4952922;28;20023;-69
2021/07/12 08:29:20;;;;;;;10.50;7.40;;;;;;;;;;4953487;28;20038;-80
2021/07/12 08:31:46;;;;;;;12.95;6.60;;;;;;;;;;4933275;28;20052;-71
2021/07/12 08:34:13;;;;;;;9.93;6.30;;;;;;;;;;4949996;29;20115;-68
2021/07/12 08:36:39;;;;;;;10.80;6.50;;;;;;;;;;4947508;28;20094;-84
2021/07/12 08:39:06;;;;;;;9.35;6.70;;;;;;;;;;4935523;29;20035;-71
2021/07/12 08:41:41;;;;;;;9.85;7.05;;;;;;;;;;4952213;28;20030;-79
2021/07/12 08:44:07;;;;;;;8.57;6.45;;;;;;;;;;4936849;29;20062;-67
2021/07/12 08:46:36;;;;;;;13.23;6.57;;;;;;;;;;4950366;28;20027;-72
2021/07/12 08:49:02;;;;;;;11.20;6.88;;;;;;;;;;4933370;29;20113;-87
2021/07/12 08:51:28;;;;;;;11.23;7.43;;;;;;;;;;4940713;29;20031;-81
2021/07/12 08:53:55;;;;;;;10.32;6.85;;;;;;;;;;4939109;29;20485;-74
2021/07/12 08:56:21;;;;;;;13.63;7.00;;;;;;;;;;4949531;29;20027;-81
2021/07/12 08:58:50;;;;;;;10.27;6.43;;;;;;;;;;4953393;28;20054;-82
2021/07/12 09:01:16;;;;;;;12.45;6.60;;;;;;;;;;4953594;29;20413;-69
2021/07/12 09:03:51;;;;;;;10.77;6.57;;;;;;;;;;4936768;29;20039;-73
2021/07/12 09:06:18;;;;;;;11.68;7.20;;;;;;;;;;4950749;28;20035;-68
2021/07/12 09:08:55;;;;;;;11.00;6.75;;;;;;;;;;4950631;29;20095;-84
2021/07/12 09:11:30;;;;;;;12.15;6.38;;;;;;;;;;4950482;28;20490;-79
2021/07/12 09:14:04;;;;;;;17.15;7.53;;;;;;;;;;4944524;29;20031;-77
2021/07/12 09:16:36;;;;;;;7.20;6.15;;;;;;;;;;4933747;29;20047;-75
2021/07/12 09:19:13;;;;;;;7.28;6.22;;;;;;;;;;4931098;29;20024;-78
2021/07/12 09:21:41;;;;;;;9.60;6.68;;;;;;;;;;4917413;29;20449;-88
2021/07/12 09:24:13;;;;;;;9.25;6.43;;;;;;;;;;4930999;29;20043;-84
2021/07/12 09:26:42;;;;;;;10.03;6.80;;;;;;;;;;4932870;29;20036;-74
2021/07/12 09:29:14;;;;;;;9.90;6.72;;;;;;;;;;4932612;29;20063;-76
2021/07/12 09:31:40;;;;;;;8.32;6.15;;;;;;;;;;4912776;29;20039;-75
2021/07/12 09:34:06;;;;;;;11.73;6.65;;;;;;;;;;4927754;29;20034;-83
2021/07/12 09:36:35;;;;;;;15.95;6.68;;;;;;;;;;4932157;29;20032;-89
2021/07/12 09:39:20;;;;;;;12.13;6.50;;;;;;;;;;4922517;29;20431;-80
2021/07/12 09:41:48;;;;;;;9.07;6.28;;;;;;;;;;4916911;29;20493;-78
2021/07/12 09:44:14;;;;;;;10.98;6.30;;;;;;;;;;4936631;29;20485;-76
2021/07/12 09:46:40;;;;;;;8.75;6.78;;;;;;;;;;4934180;29;20032;-81
2021/07/12 09:49:07;;;;;;;10.80;6.43;;;;;;;;;;4932340;29;20091;-76
2021/07/12 09:51:34;;;;;;;9.77;6.50;;;;;;;;;;4933261;29;20051;-88
2021/07/12 09:54:19;;;;;;;7.63;6.00;;;;;;;;;;4920394;29;20027;-78
2021/07/12 09:56:46;;;;;;;10.23;6.57;;;;;;;;;;4919474;29;20023;-75
2021/07/12 09:59:15;;;;;;;10.73;6.75;;;;;;;;;;4920361;29;20078;-81
2021/07/12 10:01:51;;;;;;;12.57;7.40;;;;;;;;;;4927348;29;20024;-78
2021/07/12 10:04:17;;;;;;;8.48;6.30;;;;;;;;;;4936551;29;20075;-82
2021/07/12 10:06:45;;;;;;;11.35;6.43;;;;;;;;;;4917209;29;20122;-86
2021/07/12 10:09:11;;;;;;;9.55;6.40;;;;;;;;;;4933835;29;20066;-76
2021/07/12 10:11:37;;;;;;;16.55;6.35;;;;;;;;;;4930530;29;20581;-75
2021/07/12 10:14:04;;;;;;;8.77;6.43;;;;;;;;;;4928244;29;20040;-77
2021/07/12 10:16:33;;;;;;;10.45;6.00;;;;;;;;;;4933914;29;20067;-69
2021/07/12 10:19:00;;;;;;;11.88;7.13;;;;;;;;;;4928529;29;20024;-73
2021/07/12 10:21:33;;;;;;;12.02;6.60;;;;;;;;;;4931311;29;20059;-73
2021/07/12 10:24:00;;;;;;;14.07;6.57;;;;;;;;;;4932840;29;20393;-66
2021/07/12 10:26:42;;;;;;;11.80;6.68;;;;;;;;;;4931856;29;20032;-82
2021/07/12 10:29:12;;;;;;;11.85;5.93;;;;;;;;;;4929705;29;20478;-88
2021/07/12 10:31:53;;;;;;;9.45;6.05;;;;;;;;;;4919452;29;20047;-91
2021/07/12 10:34:31;;;;;;;10.32;5.95;;;;;;;;;;4929864;29;20024;-83
2021/07/12 10:37:01;;;;;;;11.38;6.30;;;;;;;;;;4933193;29;20035;-90
2021/07/12 10:39:46;;;;;;;14.63;6.85;;;;;;;;;;4922511;29;20039;-70
2021/07/12 10:42:12;;;;;;;8.52;6.30;;;;;;;;;;4928121;29;20027;-84
2021/07/12 10:44:57;;;;;;;12.48;6.57;;;;;;;;;;4916966;29;20046;-75
2021/07/12 10:47:42;;;;;;;11.40;6.53;;;;;;;;;;4929387;29;20407;-80
2021/07/12 10:50:27;;;;;;;12.93;6.70;;;;;;;;;;4914937;29;20058;-81
2021/07/12 10:52:53;;;;;;;12.13;6.65;;;;;;;;;;4940305;29;20437;-69
2021/07/12 10:55:37;;;;;;;8.63;6.57;;;;;;;;;;4936814;29;20059;-72
2021/07/12 10:58:20;;;;;;;9.65;6.40;;;;;;;;;;4926534;29;20461;-68
2021/07/12 11:00:47;;;;;;;11.55;6.30;;;;;;;;;;4933097;29;20023;-67
2021/07/12 11:03:32;;;;;;;8.63;6.85;;;;;;;;;;4934790;29;20048;-80
2021/07/12 11:05:58;;;;;;;10.50;6.47;;;;;;;;;;4931603;29;20028;-84
2021/07/12 11:08:41;;;;;;;12.90;7.22;;;;;;;;;;4931645;29;20031;-90
2021/07/12 11:11:08;;;;;;;9.95;6.38;;;;;;;;;;4935649;29;20034;-78
2021/07/12 11:13:50;;;;;;;9.15;6.55;;;;;;;;;;4936640;29;20035;-74
2021/07/12 11:16:18;;;;;;;10.90;6.72;;;;;;;;;;4930885;29;20052;-75
2021/07/12 11:18:44;;;;;;;14.93;6.65;;;;;;;;;;4930050;29;20024;-76
2021/07/12 11:21:11;;;;;;;9.57;6.45;;;;;;;;;;4938141;29;20553;-74
2021/07/12 11:23:39;;;;;;;11.20;7.10;;;;;;;;;;4933469;29;20035;-79
2021/07/12 11:26:23;;;;;;;11.02;6.70;;;;;;;;;;4936678;29;20107;-88
2021/07/12 11:28:53;;;;;;;7.32;6.55;;;;;;;;;;4919992;29;20028;-78
2021/07/12 11:31:37;;;;;;;8.25;7.32;;;;;;;;;;4936755;29;20031;-83
2021/07/12 11:34:03;;;;;;;8.45;6.88;;;;;;;;;;4920714;29;20083;-84
2021/07/12 11:36:30;;;;;;;10.93;6.68;;;;;;;;;;4916968;29;20079;-71
2021/07/12 11:38:56;;;;;;;8.60;6.80;;;;;;;;;;4934089;29;20019;-71
2021/07/12 11:41:23;;;;;;;7.40;6.45;;;;;;;;;;4935575;29;20031;-76
2021/07/12 11:44:06;;;;;;;8.88;6.38;;;;;;;;;;4934799;29;20032;-71
2021/07/12 11:46:32;;;;;;;13.00;7.10;;;;;;;;;;4918524;29;20036;-72
2021/07/12 11:49:12;;;;;;;7.88;6.68;;;;;;;;;;4932834;29;20035;-71
2021/07/12 11:51:39;;;;;;;9.50;6.75;;;;;;;;;;4933401;29;20087;-83
2021/07/12 11:54:15;;;;;;;9.95;6.40;;;;;;;;;;4922806;29;20034;-81
2021/07/12 11:57:00;;;;;;;7.50;6.70;;;;;;;;;;4934696;29;20032;-69
2021/07/12 11:59:36;;;;;;;9.57;6.45;;;;;;;;;;4933068;29;20034;-70
2021/07/12 12:02:09;;;;;;;9.80;6.45;;;;;;;;;;4934562;29;20028;-71
2021/07/12 12:04:52;;;;;;;11.65;7.40;;;;;;;;;;4934966;29;20046;-71
2021/07/12 12:07:24;;;;;;;8.40;6.38;;;;;;;;;;4930534;29;20087;-69
2021/07/12 12:10:30;;;;;;;;;;;;;;;;;;;;;
2021/07/12 12:13:09;;;;;;;9.13;6.10;;;;;;;;;;4921483;29;20042;-75
2021/07/12 12:15:36;;;;;;;12.43;6.55;;;;;;;;;;4934194;29;20052;-67
2021/07/12 12:18:10;;;;;;;8.23;6.50;;;;;;;;;;4934764;29;20135;-81
2021/07/12 12:20:45;;;;;;;8.05;6.57;;;;;;;;;;4926848;29;20074;-69
2021/07/12 12:23:19;;;;;;;8.80;6.53;;;;;;;;;;4920934;29;20168;-70
2021/07/12 12:25:51;;;;;;;10.55;6.80;;;;;;;;;;4935321;29;20039;-70
2021/07/12 12:28:25;;;;;;;8.10;6.63;;;;;;;;;;4929489;29;20043;-69
2021/07/12 12:30:53;;;;;;;15.98;6.72;;;;;;;;;;4931093;29;20051;-79
2021/07/12 12:33:42;;;;;;;8.20;6.57;;;;;;;;;;4928878;29;20570;-70
2021/07/12 12:36:18;;;;;;;9.85;6.90;;;;;;;;;;4933931;29;20098;-66
2021/07/12 12:38:54;;;;;;;11.65;6.45;;;;;;;;;;4934612;29;20028;-67
2021/07/12 12:41:21;;;;;;;9.18;6.97;;;;;;;;;;4932204;29;20094;-67
2021/07/12 12:44:05;;;;;;;9.95;6.75;;;;;;;;;;4923346;29;20078;-67
2021/07/12 12:46:32;;;;;;;13.07;6.97;;;;;;;;;;4931596;29;20167;-67
2021/07/12 12:48:58;;;;;;;10.63;7.55;;;;;;;;;;4934602;29;20015;-66
2021/07/12 12:51:33;;;;;;;8.68;6.75;;;;;;;;;;4934124;29;20126;-66
2021/07/12 12:54:07;;;;;;;10.18;6.28;;;;;;;;;;4931926;29;20369;-66
2021/07/12 12:56:33;;;;;;;8.98;6.32;;;;;;;;;;4934331;29;20027;-66
2021/07/12 12:59:04;;;;;;;15.43;6.75;;;;;;;;;;4917704;29;20495;-66
2021/07/12 13:01:34;;;;;;;8.23;6.80;;;;;;;;;;4934122;29;20023;-67
2021/07/12 13:04:12;;;;;;;11.02;6.97;;;;;;;;;;4930884;29;20027;-63
2021/07/12 13:06:44;;;;;;;8.15;6.15;;;;;;;;;;4930937;29;20091;-66
2021/07/12 13:09:13;;;;;;;8.73;6.22;;;;;;;;;;4934068;29;20490;-66
2021/07/12 13:11:39;;;;;;;9.13;6.47;;;;;;;;;;4934158;29;20035;-65
2021/07/12 13:14:05;;;;;;;9.18;6.22;;;;;;;;;;4933640;29;20086;-65
2021/07/12 13:16:33;;;;;;;11.00;6.32;;;;;;;;;;4930312;29;20040;-66
2021/07/12 13:18:59;;;;;;;13.82;6.70;;;;;;;;;;4932924;29;20385;-66
2021/07/12 13:21:58;;;;;;;13.35;7.22;;;;;;;;;;4929145;29;20050;-67
2021/07/12 13:24:43;;;;;;;12.18;6.80;;;;;;;;;;4879878;29;20048;-66
2021/07/12 13:27:20;;;;;;;13.73;7.75;;;;;;;;;;4876007;29;20033;-66
2021/07/12 13:29:46;;;;;;;10.60;7.30;;;;;;;;;;4875702;29;20029;-65
2021/07/12 13:32:12;;;;;;;11.93;7.35;;;;;;;;;;4877905;29;20092;-65
2021/07/12 13:34:48;;;;;;;19.90;7.68;;;;;;;;;;4882695;29;20041;-81
2021/07/12 13:37:14;;;;;;;8.80;6.97;;;;;;;;;;4862017;29;20390;-70
2021/07/12 13:39:41;;;;;;;15.30;7.03;;;;;;;;;;4877295;29;20407;-67
2021/07/12 13:42:13;;;;;;;16.02;7.05;;;;;;;;;;4874492;29;20021;-67
2021/07/12 13:44:39;;;;;;;9.45;7.05;;;;;;;;;;4878181;29;20124;-66
2021/07/12 13:47:05;;;;;;;8.60;6.68;;;;;;;;;;4873001;29;20041;-68
2021/07/12 13:49:31;;;;;;;8.60;7.05;;;;;;;;;;4874504;29;20578;-68
2021/07/12 13:51:57;;;;;;;10.65;7.50;;;;;;;;;;4877853;29;20033;-67
2021/07/12 13:54:23;;;;;;;9.70;7.20;;;;;;;;;;4869738;29;20048;-67
2021/07/12 13:56:49;;;;;;;9.35;7.05;;;;;;;;;;4878914;29;20042;-68
2021/07/12 13:59:16;;;;;;;8.82;7.30;;;;;;;;;;4891756;29;20077;-68
2021/07/12 14:01:42;;;;;;;10.93;7.03;;;;;;;;;;4932895;29;20569;-67
2021/07/12 14:04:08;;;;;;;13.55;7.78;;;;;;;;;;4933150;29;20036;-67
2021/07/12 14:06:34;;;;;;;11.57;7.28;;;;;;;;;;4933737;29;20032;-68
2021/07/12 14:09:00;;;;;;;8.27;7.22;;;;;;;;;;4931742;29;20332;-67
2021/07/12 14:11:26;;;;;;;9.00;6.90;;;;;;;;;;4932376;29;20050;-68
2021/07/12 14:13:52;;;;;;;9.00;7.40;;;;;;;;;;4932194;29;20035;-65
2021/07/12 14:16:23;;;;;;;10.23;7.25;;;;;;;;;;4912792;29;20084;-68
2021/07/12 14:18:50;;;;;;;12.32;7.60;;;;;;;;;;4933595;29;20503;-67
2021/07/12 14:21:17;;;;;;;9.98;7.00;;;;;;;;;;4933855;29;20119;-67
2021/07/12 14:23:43;;;;;;;13.02;7.55;;;;;;;;;;4931636;29;20430;-68
2021/07/12 14:26:09;;;;;;;8.48;6.90;;;;;;;;;;4926082;29;20164;-69
2021/07/12 14:28:36;;;;;;;11.85;7.55;;;;;;;;;;4936478;29;20118;-67
2021/07/12 14:31:03;;;;;;;15.25;7.53;;;;;;;;;;4938333;29;20441;-67
2021/07/12 14:33:29;;;;;;;13.45;7.60;;;;;;;;;;4935433;29;20035;-67
2021/07/12 14:35:55;;;;;;;8.80;7.05;;;;;;;;;;4933502;29;20055;-69
2021/07/12 14:38:25;;;;;;;10.20;6.90;;;;;;;;;;4936220;29;20114;-70
2021/07/12 14:40:51;;;;;;;12.35;7.00;;;;;;;;;;4933981;29;20024;-73
2021/07/12 14:43:17;;;;;;;14.02;7.03;;;;;;;;;;4933558;29;20067;-70
2021/07/12 14:45:43;;;;;;;11.43;6.90;;;;;;;;;;4927084;29;20379;-70